Hauptseite
METAR-TAF:

METAR-TAF

Flughäfen :

Kuwait-Stadt, Kuwait

Flughafen Kuwait

Breite: 29-13N, Länge: 047-59E, Höhe: 55 m

Beobachtung

Neuester Wetterbericht von vor 39 Minuten, um 02:00 UTC
Wind 9 kt aus Nord
Temperatur 36°C
Luftfeuchtigkeit 18%
Luftdruck 999 hPa
Sichtweite 10 km oder mehr
keine Wolken unter 1500 m und keine Kumulonimbus oder Gewitterwolken

METAR: OKBK 280200Z 36009KT CAVOK 36/08 Q0999 NOSIG

Zeit: 05:39 (02:39 UTC)

Prognose

Neuester Wetterbericht von vor 3 Stunden und 54 Minuten, um 22:45 UTC
Gültige Prognose vom 28 um 00 UTC bis 29 um 06 UTC
Wind 8 kt aus Nord, Böen bis zu 18 kt
Sichtweite 10 km oder mehr
keine Wolken unter 1500 m und keine Kumulonimbus oder Gewitterwolken
Zeitweise
vom 28 um 12 UTC bis 28 um 22 UTC
Wind 3 kt aus unterschiedlichen Richtungen

TAF: OKBK 272245Z 2800/2906 35008G18KT CAVOK TEMPO 2812/2822 VRB03KT

Wetterbeobachtungen und Prognosen von mehr als 4000 Flughäfen (METAR und TAF Bericht).

Die verfügbaren Stationen werden durch gelbe und rote Markierungen auf der Karte dargestellt.

Führen Sie die Maus auf sie, um den Namen der Station zu sehen.

Darauf klicken, um die Beobachtung von Wetterbeobachtungen und Prognosen zu sehen.

Um die Karte zu ändern : klicken Sie auf den grünen Tasten mit einem schwarzen Kreuz Zum Vergrößern, auf den grünen Button mit einem Gedankenstrich zu verkleinern, oder auf die grünen Pfeile für benachbarte Karten.


METAR-TAF: